Terminal Aerodrome Forecast
Issued by NWS

Home | Current Version | Previous Version | Text Only | Print | Product List | Glossary On
Versions: 1 2 3 4 5 6 7 8 9 10 11 12 13 14 15 16 17 18 19 20 21 22 23 24 25
000
FTUS43 KDVN 310500 AAA
TAFCID
TAF AMD
KCID 310553Z 3106/0106 15003KT 2SM BR SKC
      TEMPO 3107/3109 3/4SM BR SCT005
     FM310900 00000KT 1SM BR SCT005
      TEMPO 3109/3113 3/4SM BR BKN005
     FM311300 15005KT 5SM BR FEW005
     FM311500 18008KT P6SM SCT050
     FM010400 17007KT P6SM VCTS BKN070CB=

USA.gov is the U.S. government's official web portal to all federal, state and local government web resources and services.